Time;durP1;ratioP1;P1;durP2;ratioP2;P2;SDS_P1;SDS_P2;PMS_P1;PMS_P2;Temp;Humidity;BMP_temperature;BMP_pressure;BME280_temperature;BME280_humidity;BME280_pressure;Samples;Min_cycle;Max_cycle;Signal;HPM_P1;HPM_P2
2022/06/21 00:01:11;;;;;;;10.00;5.88;;;11.00;99.90;;;;;;5010057;28;20383;-83
2022/06/21 00:03:37;;;;;;;6.32;5.63;;;11.00;99.90;;;;;;5012581;28;20769;-84
2022/06/21 00:06:03;;;;;;;6.60;6.00;;;11.00;99.90;;;;;;5012597;28;20503;-84
2022/06/21 00:08:31;;;;;;;10.10;6.70;;;11.00;99.90;;;;;;5014263;28;20470;-84
2022/06/21 00:10:58;;;;;;;8.48;6.28;;;11.00;99.90;;;;;;5013581;28;20400;-84
2022/06/21 00:13:42;;;;;;;11.60;7.37;;;10.90;99.90;;;;;;5012827;28;20375;-83
2022/06/21 00:16:12;;;;;;;9.83;6.77;;;10.90;99.90;;;;;;5012448;28;20387;-83
2022/06/21 00:18:39;;;;;;;7.00;6.40;;;10.90;99.90;;;;;;5013586;28;20395;-84
2022/06/21 00:21:12;;;;;;;9.75;6.57;;;10.90;99.90;;;;;;5012322;28;20486;-84
2022/06/21 00:23:37;;;;;;;9.05;7.05;;;10.90;99.90;;;;;;5013680;28;20379;-83
2022/06/21 00:26:03;;;;;;;9.87;7.00;;;10.90;99.90;;;;;;5013414;28;20465;-83
2022/06/21 00:28:29;;;;;;;8.88;6.40;;;10.90;99.90;;;;;;5013338;28;20385;-84
2022/06/21 00:30:55;;;;;;;8.02;6.55;;;10.80;99.90;;;;;;5012795;28;20889;-83
2022/06/21 00:33:23;;;;;;;8.80;6.35;;;10.80;99.90;;;;;;5013470;28;20418;-83
2022/06/21 00:35:51;;;;;;;7.22;6.47;;;10.90;99.90;;;;;;5013406;28;20375;-83
2022/06/21 00:38:27;;;;;;;10.23;6.87;;;10.90;99.90;;;;;;5012139;28;20470;-83
2022/06/21 00:40:55;;;;;;;9.93;7.05;;;10.80;99.90;;;;;;5012823;28;20872;-83
2022/06/21 00:43:26;;;;;;;12.10;7.07;;;10.80;99.90;;;;;;5013613;28;20961;-84
2022/06/21 00:45:52;;;;;;;7.60;6.75;;;10.90;99.90;;;;;;5011659;28;20482;-83
2022/06/21 00:48:37;;;;;;;7.97;7.10;;;10.90;99.90;;;;;;5012490;28;20391;-84
2022/06/21 00:51:36;;;;;;;9.30;6.85;;;10.90;99.90;;;;;;5012203;28;20395;-84
2022/06/21 00:54:29;;;;;;;8.10;7.30;;;11.00;99.90;;;;;;5013144;28;20422;-83
2022/06/21 00:57:04;;;;;;;10.38;7.20;;;11.00;99.90;;;;;;5011976;28;20898;-84
2022/06/21 00:59:34;;;;;;;9.80;6.63;;;11.20;99.90;;;;;;5011894;28;20475;-83
2022/06/21 01:02:04;;;;;;;10.23;6.93;;;11.20;99.90;;;;;;5012849;28;20375;-84
2022/06/21 01:04:42;;;;;;;8.27;6.35;;;11.30;99.90;;;;;;5013681;28;20411;-84
2022/06/21 01:07:10;;;;;;;11.77;6.95;;;11.40;99.90;;;;;;5011787;28;20422;-84
2022/06/21 01:09:39;;;;;;;7.82;6.25;;;11.40;99.90;;;;;;5013403;28;20453;-85
2022/06/21 01:12:11;;;;;;;7.78;5.70;;;11.40;99.90;;;;;;5010955;28;20399;-83
2022/06/21 01:14:41;;;;;;;7.72;6.07;;;11.50;99.90;;;;;;5011723;28;20384;-84
2022/06/21 01:17:10;;;;;;;8.93;6.00;;;11.50;99.90;;;;;;5012641;28;20414;-84
2022/06/21 01:19:42;;;;;;;6.68;5.85;;;11.60;99.90;;;;;;5011471;28;20914;-83
2022/06/21 01:22:29;;;;;;;9.05;6.53;;;11.60;99.90;;;;;;5012225;28;20461;-84
2022/06/21 01:25:22;;;;;;;9.82;6.00;;;11.60;99.90;;;;;;5011304;28;20388;-84
2022/06/21 01:27:48;;;;;;;9.52;6.40;;;11.60;99.90;;;;;;5011894;28;20396;-84
2022/06/21 01:30:14;;;;;;;7.32;6.22;;;11.50;99.90;;;;;;5010904;28;20375;-84
2022/06/21 01:32:40;;;;;;;8.55;5.80;;;11.50;99.90;;;;;;5010731;28;20382;-84
2022/06/21 01:35:13;;;;;;;10.70;6.57;;;11.40;99.90;;;;;;5012102;28;20877;-84
2022/06/21 01:37:40;;;;;;;8.38;6.40;;;11.40;99.90;;;;;;5012453;28;20414;-84
2022/06/21 01:40:25;;;;;;;10.48;6.50;;;11.40;99.90;;;;;;5010868;28;20391;-83
2022/06/21 01:43:01;;;;;;;7.90;6.25;;;11.30;99.90;;;;;;5010566;28;20484;-83
2022/06/21 01:45:42;;;;;;;8.70;6.47;;;11.20;99.90;;;;;;5010433;28;20395;-84
2022/06/21 01:48:16;;;;;;;7.97;6.80;;;11.20;99.90;;;;;;5011870;28;20533;-83
2022/06/21 01:50:44;;;;;;;8.75;6.88;;;11.10;99.90;;;;;;5011341;28;20406;-82
2022/06/21 01:53:11;;;;;;;8.82;7.25;;;11.00;99.90;;;;;;5011409;28;20422;-83
2022/06/21 01:55:45;;;;;;;9.32;7.40;;;11.00;99.90;;;;;;5011954;28;20450;-83
2022/06/21 01:58:18;;;;;;;10.63;7.33;;;10.90;99.90;;;;;;5011568;28;20394;-83
2022/06/21 02:00:50;;;;;;;10.27;7.65;;;10.90;99.90;;;;;;5011386;28;20446;-83
2022/06/21 02:03:20;;;;;;;8.55;7.22;;;10.90;99.90;;;;;;5010392;28;20395;-83
2022/06/21 02:05:53;;;;;;;9.13;7.05;;;10.80;99.90;;;;;;5010678;28;20402;-84
2022/06/21 02:08:24;;;;;;;11.57;7.80;;;10.70;99.90;;;;;;5011555;28;20537;-83
2022/06/21 02:10:54;;;;;;;9.63;7.15;;;10.70;99.90;;;;;;5011312;28;20403;-84
2022/06/21 02:13:32;;;;;;;9.32;7.13;;;10.70;99.90;;;;;;5009946;28;20403;-83
2022/06/21 02:16:11;;;;;;;10.77;7.88;;;10.70;99.90;;;;;;5009915;28;20441;-83
2022/06/21 02:18:47;;;;;;;11.63;7.85;;;10.70;99.90;;;;;;5011478;28;20383;-84
2022/06/21 02:21:25;;;;;;;12.05;7.70;;;10.80;99.90;;;;;;5010919;28;20487;-83
2022/06/21 02:23:53;;;;;;;12.00;8.25;;;10.70;99.90;;;;;;5011246;28;20470;-83
2022/06/21 02:26:22;;;;;;;12.38;8.18;;;10.70;99.90;;;;;;5011232;28;20903;-84
2022/06/21 02:28:48;;;;;;;10.85;7.63;;;10.70;99.90;;;;;;5009773;28;20410;-83
2022/06/21 02:31:14;;;;;;;11.65;8.10;;;10.60;99.90;;;;;;5011056;28;20733;-83
2022/06/21 02:33:41;;;;;;;10.50;7.90;;;10.60;99.90;;;;;;5010017;28;20379;-83
2022/06/21 02:36:13;;;;;;;9.85;8.63;;;10.50;99.90;;;;;;5010067;28;20398;-83
2022/06/21 02:38:58;;;;;;;11.57;8.50;;;10.50;99.90;;;;;;5011324;28;20387;-83
2022/06/21 02:41:54;;;;;;;11.63;8.57;;;10.50;99.90;;;;;;5009483;28;20382;-83
2022/06/21 02:44:38;;;;;;;11.10;8.40;;;10.50;99.90;;;;;;5008742;28;20383;-84
2022/06/21 02:47:14;;;;;;;14.63;8.27;;;10.50;99.90;;;;;;5010479;28;20414;-84
2022/06/21 02:49:53;;;;;;;12.82;9.30;;;10.50;99.90;;;;;;5010711;28;20415;-83
2022/06/21 02:52:30;;;;;;;11.93;9.02;;;10.50;99.90;;;;;;5010307;28;20456;-83
2022/06/21 02:55:02;;;;;;;14.57;8.93;;;10.50;99.90;;;;;;5009561;28;20397;-84
2022/06/21 02:57:42;;;;;;;10.70;8.38;;;10.50;99.90;;;;;;5009668;28;20430;-84
2022/06/21 03:00:14;;;;;;;10.38;8.32;;;10.40;99.90;;;;;;5012458;28;20387;-83
2022/06/21 03:02:40;;;;;;;12.43;9.40;;;10.40;99.90;;;;;;5011187;28;20396;-83
2022/06/21 03:05:13;;;;;;;13.73;9.47;;;10.40;99.90;;;;;;5009767;28;20446;-83
2022/06/21 03:07:42;;;;;;;14.45;9.35;;;10.40;99.90;;;;;;5010684;28;20452;-83
2022/06/21 03:10:18;;;;;;;15.43;10.07;;;10.50;99.90;;;;;;5009256;28;20470;-84
2022/06/21 03:12:46;;;;;;;11.97;9.53;;;10.50;99.90;;;;;;5010375;28;21051;-84
2022/06/21 03:15:12;;;;;;;15.73;9.77;;;10.50;99.90;;;;;;5010406;28;20911;-83
2022/06/21 03:17:52;;;;;;;13.18;9.40;;;10.50;99.90;;;;;;5010555;28;20880;-83
2022/06/21 03:20:19;;;;;;;13.85;9.73;;;10.60;99.90;;;;;;5008969;28;20399;-83
2022/06/21 03:22:46;;;;;;;12.77;9.57;;;10.60;99.90;;;;;;5009645;28;20367;-83
2022/06/21 03:25:29;;;;;;;14.00;9.80;;;10.60;99.90;;;;;;5010472;28;20861;-84
2022/06/21 03:28:01;;;;;;;16.35;9.95;;;10.60;99.90;;;;;;5008970;28;20410;-83
2022/06/21 03:30:34;;;;;;;15.23;10.48;;;10.60;99.90;;;;;;5010451;28;20414;-83
2022/06/21 03:33:02;;;;;;;16.73;10.50;;;10.60;99.90;;;;;;5010161;28;20745;-83
2022/06/21 03:35:31;;;;;;;15.05;10.10;;;10.70;99.90;;;;;;5029320;28;20412;-83
2022/06/21 03:37:57;;;;;;;11.38;9.50;;;10.70;99.90;;;;;;5024948;28;20372;-84
2022/06/21 03:43:47;;;;;;;14.98;10.25;;;10.90;99.90;;;;;;5014296;28;20410;-83
2022/06/21 03:46:21;;;;;;;16.08;10.00;;;10.90;99.90;;;;;;5003124;28;20411;-83
2022/06/21 03:48:54;;;;;;;13.63;9.65;;;11.00;99.90;;;;;;5014246;28;20386;-83
2022/06/21 03:51:25;;;;;;;15.00;9.48;;;11.00;99.90;;;;;;5031905;28;20805;-84
2022/06/21 03:54:05;;;;;;;12.55;9.73;;;11.10;99.90;;;;;;5032537;28;20696;-84
2022/06/21 03:56:49;;;;;;;11.02;8.57;;;11.20;99.90;;;;;;5034424;28;20468;-84
2022/06/21 03:59:15;;;;;;;13.70;8.98;;;11.20;99.90;;;;;;5033517;28;20404;-83
2022/06/21 04:01:47;;;;;;;14.63;9.63;;;11.30;99.90;;;;;;5033414;28;20400;-84
2022/06/21 04:04:44;;;;;;;14.73;9.70;;;11.30;99.90;;;;;;5032282;28;20463;-84
2022/06/21 04:07:39;;;;;;;14.23;9.02;;;11.40;99.90;;;;;;5034143;28;20958;-84
2022/06/21 04:10:43;;;;;;;14.52;9.35;;;11.40;99.90;;;;;;5032478;28;20373;-83
2022/06/21 04:13:37;;;;;;;14.20;8.55;;;11.60;99.90;;;;;;5032020;28;20751;-82
2022/06/21 04:16:15;;;;;;;12.18;8.25;;;11.60;99.90;;;;;;5033268;28;20913;-84
2022/06/21 04:18:52;;;;;;;11.43;7.85;;;11.80;99.90;;;;;;5032748;28;20385;-84
2022/06/21 04:21:30;;;;;;;10.75;7.20;;;11.90;99.90;;;;;;5027842;28;20511;-84
2022/06/21 04:24:15;;;;;;;11.75;7.15;;;12.10;99.90;;;;;;5032249;28;20816;-83
2022/06/21 04:27:01;;;;;;;12.65;7.13;;;12.10;99.90;;;;;;5032629;28;20555;-84
2022/06/21 04:29:48;;;;;;;10.50;6.63;;;12.40;99.90;;;;;;5027218;28;20775;-82
2022/06/21 04:32:28;;;;;;;12.98;6.72;;;12.50;99.90;;;;;;5015462;28;20395;-85
2022/06/21 04:34:58;;;;;;;10.48;6.25;;;12.70;99.90;;;;;;5013771;28;20950;-85
2022/06/21 04:37:31;;;;;;;8.85;5.95;;;12.80;99.90;;;;;;5014342;28;20399;-84
2022/06/21 04:40:06;;;;;;;10.45;5.88;;;12.90;99.90;;;;;;5013332;28;20406;-85
2022/06/21 04:42:48;;;;;;;10.90;6.25;;;13.00;99.90;;;;;;5011136;28;20924;-83
2022/06/21 04:45:27;;;;;;;9.75;6.10;;;13.00;99.90;;;;;;5011642;28;20460;-84
2022/06/21 04:48:12;;;;;;;12.13;5.60;;;13.20;99.90;;;;;;5011593;28;20478;-85
2022/06/21 04:50:44;;;;;;;10.97;5.80;;;13.40;99.90;;;;;;5014216;28;20387;-84
2022/06/21 04:53:28;;;;;;;14.80;6.00;;;13.50;99.90;;;;;;5014532;28;20390;-85
2022/06/21 04:56:00;;;;;;;9.85;5.32;;;13.40;99.90;;;;;;5012288;28;20907;-85
2022/06/21 04:58:25;;;;;;;11.48;5.93;;;13.40;99.90;;;;;;5013878;28;20375;-83
2022/06/21 05:00:52;;;;;;;10.70;6.33;;;15.50;99.90;;;;;;5014067;28;20741;-86
2022/06/21 05:03:41;;;;;;;10.90;5.95;;;13.50;99.90;;;;;;5013658;28;20450;-85
2022/06/21 05:06:09;;;;;;;11.25;5.85;;;13.50;99.90;;;;;;5011185;28;20419;-85
2022/06/21 05:08:35;;;;;;;12.95;5.95;;;13.60;99.90;;;;;;5014160;28;20379;-84
2022/06/21 05:11:02;;;;;;;12.20;6.03;;;13.80;99.90;;;;;;5012008;28;20394;-84
2022/06/21 05:13:42;;;;;;;13.27;6.30;;;13.90;99.90;;;;;;5012164;28;20392;-85
2022/06/21 05:16:22;;;;;;;9.90;5.60;;;14.00;99.90;;;;;;5012425;28;20394;-84
2022/06/21 05:19:12;;;;;;;14.05;5.32;;;14.10;99.90;;;;;;5012179;28;20395;-84
2022/06/21 05:21:52;;;;;;;11.65;5.00;;;14.20;99.90;;;;;;5011421;28;20407;-84
2022/06/21 05:24:19;;;;;;;8.93;4.93;;;14.50;99.90;;;;;;5011933;28;20393;-85
2022/06/21 05:27:15;;;;;;;10.23;4.70;;;14.60;99.90;;;;;;5013092;28;20435;-85
2022/06/21 05:30:06;;;;;;;8.98;4.97;;;14.60;99.90;;;;;;5011465;28;20457;-84
2022/06/21 05:32:38;;;;;;;11.23;4.75;;;14.70;99.90;;;;;;5012456;28;20410;-85
2022/06/21 05:35:20;;;;;;;11.95;4.95;;;14.70;99.90;;;;;;5012275;28;20391;-85
2022/06/21 05:37:58;;;;;;;13.67;5.57;;;14.70;99.90;;;;;;5012534;28;20375;-84
2022/06/21 05:40:33;;;;;;;11.93;5.32;;;14.60;99.90;;;;;;5011633;28;20425;-86
2022/06/21 05:42:59;;;;;;;12.50;5.18;;;14.60;99.90;;;;;;5012997;28;20410;-86
2022/06/21 05:45:31;;;;;;;13.07;5.03;;;14.50;99.90;;;;;;5012550;28;20727;-85
2022/06/21 05:48:00;;;;;;;9.70;5.10;;;14.50;99.90;;;;;;5011925;28;20400;-84
2022/06/21 05:50:34;;;;;;;12.48;5.43;;;14.60;99.90;;;;;;5012078;28;20711;-84
2022/06/21 05:53:29;;;;;;;12.27;4.72;;;14.60;99.90;;;;;;5013221;28;20379;-84
2022/06/21 05:55:56;;;;;;;11.90;4.63;;;14.70;99.90;;;;;;5011885;28;20474;-84
2022/06/21 05:58:35;;;;;;;9.70;4.30;;;14.90;99.90;;;;;;5012351;28;20408;-83
2022/06/21 06:01:22;;;;;;;12.52;4.32;;;15.10;99.90;;;;;;5012123;28;20402;-83
2022/06/21 06:04:19;;;;;;;9.77;4.40;;;15.20;99.90;;;;;;5011840;28;20379;-81
2022/06/21 06:06:46;;;;;;;15.63;5.05;;;15.20;99.90;;;;;;5012607;28;20403;-82
2022/06/21 06:09:29;;;;;;;12.30;4.27;;;15.30;99.90;;;;;;5012418;28;20458;-83
2022/06/21 06:12:16;;;;;;;9.25;3.95;;;15.50;99.90;;;;;;5012029;28;20402;-82
2022/06/21 06:14:52;;;;;;;15.80;4.75;;;15.70;99.90;;;;;;5012673;28;20395;-82
2022/06/21 06:17:23;;;;;;;9.32;3.88;;;16.00;99.90;;;;;;5012655;28;20745;-83
2022/06/21 06:20:27;;;;;;;12.15;3.83;;;16.00;99.90;;;;;;5010576;28;20410;-84
2022/06/21 06:23:00;;;;;;;11.48;4.18;;;16.00;99.90;;;;;;5004963;28;20880;-83
2022/06/21 06:25:33;;;;;;;11.40;3.80;;;16.00;99.90;;;;;;5011534;28;20889;-84
2022/06/21 06:27:59;;;;;;;8.40;3.42;;;16.10;99.90;;;;;;5011297;28;20409;-82
2022/06/21 06:30:41;;;;;;;9.57;3.28;;;16.40;99.90;;;;;;5010365;28;20403;-82
2022/06/21 06:33:14;;;;;;;9.40;3.53;;;16.80;99.90;;;;;;5010974;28;20764;-84
2022/06/21 06:35:43;;;;;;;9.45;3.50;;;17.40;99.90;;;;;;5022441;28;20392;-83
2022/06/21 06:38:16;;;;;;;8.95;3.15;;;17.30;99.90;;;;;;5031787;28;20462;-85
2022/06/21 06:41:03;;;;;;;7.55;2.92;;;17.50;99.90;;;;;;4991495;28;20420;-84
2022/06/21 06:43:39;;;;;;;8.70;3.13;;;17.50;99.90;;;;;;4993895;28;20380;-83
2022/06/21 06:46:06;;;;;;;7.43;2.72;;;17.60;99.90;;;;;;4991932;28;20507;-84
2022/06/21 06:48:36;;;;;;;7.45;2.58;;;17.70;99.90;;;;;;5010518;28;20387;-82
2022/06/21 06:51:14;;;;;;;9.07;2.70;;;18.00;99.90;;;;;;4993118;28;20431;-84
2022/06/21 06:53:49;;;;;;;7.82;2.85;;;18.30;99.90;;;;;;5011365;28;20395;-84
2022/06/21 06:56:21;;;;;;;8.15;2.90;;;18.50;99.90;;;;;;5012526;28;20399;-82
2022/06/21 06:58:58;;;;;;;8.10;3.08;;;18.60;99.90;;;;;;5009109;28;20523;-84
2022/06/21 07:01:39;;;;;;;8.20;2.67;;;18.60;99.90;;;;;;5023201;28;20408;-84
2022/06/21 07:04:06;;;;;;;7.80;2.53;;;18.80;99.90;;;;;;5030542;28;20392;-82
2022/06/21 07:06:43;;;;;;;10.82;2.80;;;19.00;99.90;;;;;;5030921;28;20405;-83
2022/06/21 07:09:34;;;;;;;7.63;2.28;;;19.40;99.90;;;;;;5030445;28;20392;-82
2022/06/21 07:12:14;;;;;;;7.53;2.20;;;19.80;99.90;;;;;;5031161;28;20381;-84
2022/06/21 07:14:40;;;;;;;6.63;2.60;;;19.60;99.90;;;;;;5029966;28;20400;-83
2022/06/21 07:17:34;;;;;;;8.07;2.40;;;19.20;99.90;;;;;;5029904;28;20790;-84
2022/06/21 07:20:00;;;;;;;8.98;2.60;;;19.40;99.90;;;;;;5031014;28;20457;-82
2022/06/21 07:22:34;;;;;;;7.57;2.70;;;19.20;99.90;;;;;;5031663;28;20453;-83
2022/06/21 07:25:25;;;;;;;5.93;2.58;;;19.10;99.90;;;;;;5031097;28;20381;-83
2022/06/21 07:27:59;;;;;;;6.43;2.13;;;19.20;99.90;;;;;;5027051;28;20416;-83
2022/06/21 07:30:33;;;;;;;6.35;2.22;;;19.40;99.90;;;;;;5010347;28;20399;-84
2022/06/21 07:33:07;;;;;;;6.27;2.10;;;19.50;99.90;;;;;;5011350;28;20399;-83
2022/06/21 07:35:44;;;;;;;6.57;2.13;;;19.60;99.90;;;;;;4994269;28;20403;-81
2022/06/21 07:38:24;;;;;;;7.05;2.40;;;19.90;99.90;;;;;;5008163;28;20397;-85
2022/06/21 07:40:59;;;;;;;7.68;2.28;;;20.20;99.90;;;;;;5005777;28;20419;-83
2022/06/21 07:43:32;;;;;;;6.97;2.20;;;20.40;99.90;;;;;;5009933;28;20964;-84
2022/06/21 07:46:01;;;;;;;5.60;2.20;;;20.50;99.90;;;;;;5010156;28;20411;-82
2022/06/21 07:48:47;;;;;;;6.15;2.00;;;20.30;99.90;;;;;;5011087;28;20391;-82
2022/06/21 07:51:21;;;;;;;5.32;1.92;;;20.20;99.90;;;;;;5003426;28;20391;-83
2022/06/21 07:53:58;;;;;;;6.15;2.03;;;20.40;99.90;;;;;;5010299;28;20406;-85
2022/06/21 07:56:33;;;;;;;5.43;2.10;;;20.50;99.90;;;;;;5002082;28;20457;-85
2022/06/21 07:59:00;;;;;;;6.93;2.30;;;20.60;99.90;;;;;;5026882;28;20377;-86
2022/06/21 08:07:26;;;;;;;6.30;2.10;;;20.80;99.90;;;;;;4992515;28;20455;-84
2022/06/21 08:10:00;;;;;;;9.23;2.70;;;21.20;99.90;;;;;;5002312;28;20435;-84
2022/06/21 08:12:26;;;;;;;7.03;2.10;;;21.30;99.90;;;;;;5023029;28;20894;-85
2022/06/21 08:14:52;;;;;;;5.17;1.90;;;21.30;99.90;;;;;;5029604;28;20382;-86
2022/06/21 08:17:42;;;;;;;6.93;2.40;;;21.40;99.90;;;;;;5010451;28;20406;-86
2022/06/21 08:20:37;;;;;;;7.38;2.15;;;21.50;99.90;;;;;;5010761;28;20399;-86
2022/06/21 08:23:12;;;;;;;6.03;2.03;;;21.80;99.90;;;;;;5013025;28;20939;-86
2022/06/21 08:25:59;;;;;;;8.57;2.20;;;22.00;99.90;;;;;;5013721;28;20403;-84
2022/06/21 08:28:45;;;;;;;7.13;2.15;;;22.00;99.90;;;;;;5014012;28;20407;-86
2022/06/21 08:31:16;;;;;;;5.25;1.90;;;22.20;99.90;;;;;;5013774;28;20486;-85
2022/06/21 08:33:52;;;;;;;7.22;2.42;;;22.30;99.90;;;;;;5000475;28;20387;-85
2022/06/21 08:36:42;;;;;;;7.00;2.25;;;22.50;99.90;;;;;;5013892;28;20745;-85
2022/06/21 08:39:22;;;;;;;6.88;2.53;;;22.50;99.90;;;;;;5014370;28;20386;-84
2022/06/21 08:41:56;;;;;;;6.47;1.83;;;22.40;99.40;;;;;;5014330;28;20409;-84
2022/06/21 08:44:36;;;;;;;4.93;2.10;;;22.60;99.90;;;;;;5012920;28;20382;-84
2022/06/21 08:47:39;;;;;;;4.78;2.00;;;22.70;99.90;;;;;;5013419;28;20438;-86
2022/06/21 08:50:54;;;;;;;5.22;2.17;;;22.80;99.90;;;;;;5013181;28;20446;-84
2022/06/21 08:53:39;;;;;;;5.60;1.92;;;22.80;97.80;;;;;;5009548;28;20889;-86
2022/06/21 08:56:18;;;;;;;6.80;1.90;;;22.30;99.10;;;;;;5015131;28;20461;-85
2022/06/21 08:59:06;;;;;;;5.90;1.90;;;22.40;99.30;;;;;;5013490;28;20375;-83
2022/06/21 09:01:41;;;;;;;10.40;3.03;;;22.60;98.60;;;;;;5011665;28;20401;-86
2022/06/21 09:04:36;;;;;;;6.03;1.95;;;22.80;99.40;;;;;;5012964;28;20391;-87
2022/06/21 09:07:47;;;;;;;7.70;2.15;;;22.70;98.90;;;;;;5013776;28;20403;-82
2022/06/21 09:10:18;;;;;;;7.27;2.00;;;22.80;99.40;;;;;;4996235;28;20395;-83
2022/06/21 09:13:05;;;;;;;4.60;1.80;;;22.80;99.30;;;;;;5012584;28;20383;-83
2022/06/21 09:15:46;;;;;;;7.22;2.35;;;22.90;97.40;;;;;;5014156;28;20423;-84
2022/06/21 09:18:53;;;;;;;9.50;2.00;;;23.00;97.00;;;;;;5013865;28;20449;-86
2022/06/21 09:21:53;;;;;;;4.30;1.85;;;22.90;98.30;;;;;;4992147;28;20392;-83
2022/06/21 09:24:45;;;;;;;5.57;1.90;;;23.10;97.90;;;;;;5012891;28;20383;-85
2022/06/21 09:27:19;;;;;;;5.13;1.58;;;23.00;97.70;;;;;;5011968;28;20443;-85
2022/06/21 09:30:10;;;;;;;4.55;1.90;;;23.10;94.80;;;;;;5016119;28;20400;-85
2022/06/21 09:32:52;;;;;;;5.80;1.80;;;23.00;96.00;;;;;;5031764;28;20386;-85
2022/06/21 09:35:43;;;;;;;5.25;1.50;;;23.00;97.50;;;;;;5031447;28;20439;-84
2022/06/21 09:38:27;;;;;;;5.15;1.90;;;23.30;97.70;;;;;;5031665;28;20385;-87
2022/06/21 09:41:10;;;;;;;4.75;1.65;;;23.30;95.80;;;;;;5031997;28;20382;-87
2022/06/21 09:44:19;;;;;;;6.15;1.92;;;23.20;96.90;;;;;;5033023;28;20404;-86
2022/06/21 09:46:45;;;;;;;5.35;1.80;;;23.30;96.60;;;;;;5021467;28;20482;-85
2022/06/21 09:49:37;;;;;;;6.67;1.70;;;23.20;95.20;;;;;;5012838;28;20462;-87
2022/06/21 09:52:13;;;;;;;6.57;2.00;;;23.30;96.70;;;;;;5013911;28;20465;-87
2022/06/21 09:54:46;;;;;;;5.80;2.10;;;23.40;96.40;;;;;;4993554;28;20442;-83
2022/06/21 09:57:42;;;;;;;4.00;1.50;;;23.50;92.60;;;;;;5007507;28;20393;-85
2022/06/21 10:00:22;;;;;;;5.57;1.80;;;23.30;93.80;;;;;;5036783;28;20381;-84
2022/06/21 10:03:30;;;;;;;4.82;1.30;;;23.10;93.90;;;;;;5013622;28;20426;-86
2022/06/21 10:06:14;;;;;;;9.07;2.00;;;22.90;95.40;;;;;;4991427;28;20474;-86
2022/06/21 10:09:01;;;;;;;6.18;1.80;;;23.10;95.10;;;;;;5018239;28;20465;-87
2022/06/21 10:11:33;;;;;;;4.13;1.33;;;23.30;92.40;;;;;;5013456;28;20854;-84
2022/06/21 10:14:01;;;;;;;4.25;1.60;;;23.20;92.10;;;;;;5011519;28;20387;-85
2022/06/21 10:16:39;;;;;;;8.05;1.73;;;23.20;95.00;;;;;;5011621;28;20965;-86
2022/06/21 10:19:13;;;;;;;4.35;1.50;;;23.30;95.90;;;;;;5013871;28;20395;-86
2022/06/21 10:21:58;;;;;;;4.10;1.50;;;23.30;93.10;;;;;;4992547;28;20779;-86
2022/06/21 10:25:01;;;;;;;4.53;1.65;;;23.30;93.40;;;;;;5008467;28;20391;-84
2022/06/21 10:27:49;;;;;;;3.55;1.15;;;23.70;91.80;;;;;;4993561;28;20901;-85
2022/06/21 10:30:43;;;;;;;4.05;1.48;;;23.80;91.30;;;;;;5010844;28;20459;-86
2022/06/21 10:33:27;;;;;;;4.47;1.38;;;23.80;88.80;;;;;;5009421;28;20418;-87
2022/06/21 10:36:01;;;;;;;5.38;1.40;;;23.70;89.30;;;;;;5011028;28;20403;-88
2022/06/21 10:38:51;;;;;;;3.17;1.33;;;23.30;92.30;;;;;;5012158;28;20458;-88
2022/06/21 10:41:24;;;;;;;4.35;1.45;;;23.50;90.20;;;;;;5011417;28;20391;-86
2022/06/21 10:44:19;;;;;;;4.30;1.38;;;23.50;90.80;;;;;;5012011;28;20375;-87
2022/06/21 10:46:50;;;;;;;3.97;1.60;;;23.50;90.70;;;;;;5010782;28;20410;-85
2022/06/21 10:49:28;;;;;;;4.78;1.50;;;23.70;90.60;;;;;;5010466;28;20394;-87
2022/06/21 10:52:16;;;;;;;2.57;1.23;;;23.80;91.60;;;;;;5010981;28;20445;-84
2022/06/21 10:55:03;;;;;;;5.90;1.52;;;23.90;87.00;;;;;;5010335;28;20489;-84
2022/06/21 10:57:54;;;;;;;3.33;1.30;;;24.00;86.20;;;;;;5025521;28;20448;-88
2022/06/21 11:03:34;;;;;;;4.68;1.33;;;23.90;88.40;;;;;;5032362;28;20613;-84
2022/06/21 11:06:11;;;;;;;5.70;1.33;;;23.80;88.70;;;;;;5020303;28;20406;-85
2022/06/21 11:08:47;;;;;;;3.75;1.60;;;23.70;84.30;;;;;;5010593;28;20395;-88
2022/06/21 11:11:41;;;;;;;2.67;1.27;;;23.60;90.60;;;;;;5008751;28;20664;-86
2022/06/21 11:14:22;;;;;;;3.60;1.40;;;23.60;86.20;;;;;;5008310;28;20493;-86
2022/06/21 11:16:51;;;;;;;5.35;1.38;;;23.50;88.70;;;;;;5003771;28;20430;-85
2022/06/21 11:19:37;;;;;;;2.05;1.30;;;23.60;86.10;;;;;;5011908;28;20896;-87
2022/06/21 11:22:11;;;;;;;4.25;1.20;;;23.80;84.90;;;;;;5010212;28;20391;-85
2022/06/21 11:24:46;;;;;;;3.30;1.00;;;23.80;82.60;;;;;;5011617;28;20387;-86
2022/06/21 11:27:49;;;;;;;2.72;1.40;;;23.70;84.50;;;;;;5010944;28;20482;-85
2022/06/21 11:30:31;;;;;;;4.00;1.33;;;23.60;87.50;;;;;;5009398;28;20387;-86
2022/06/21 11:33:15;;;;;;;4.32;1.20;;;23.70;84.80;;;;;;4992797;28;20760;-87
2022/06/21 11:36:05;;;;;;;4.80;1.10;;;23.80;86.80;;;;;;5008593;28;20391;-85
2022/06/21 11:39:24;;;;;;;4.05;1.55;;;23.80;83.70;;;;;;5011359;28;20420;-86
2022/06/21 11:42:04;;;;;;;4.53;1.20;;;23.80;82.30;;;;;;4954262;28;20402;-87
2022/06/21 11:44:54;;;;;;;4.53;1.20;;;23.80;86.30;;;;;;4968787;28;20937;-86
2022/06/21 11:47:57;;;;;;;3.30;1.30;;;23.80;87.40;;;;;;4992821;28;20418;-84
2022/06/21 11:50:27;;;;;;;4.85;1.67;;;24.00;88.00;;;;;;5010865;28;20406;-88
2022/06/21 11:53:23;;;;;;;3.22;1.40;;;24.20;87.80;;;;;;5010793;28;20470;-84
2022/06/21 11:56:09;;;;;;;5.05;1.67;;;24.20;89.40;;;;;;5012349;28;20399;-86
2022/06/21 11:58:56;;;;;;;4.93;1.15;;;23.80;83.10;;;;;;5006704;28;20401;-86
2022/06/21 12:01:48;;;;;;;3.13;1.20;;;23.80;87.60;;;;;;5013868;28;20470;-87
2022/06/21 12:04:29;;;;;;;4.07;1.38;;;24.00;85.80;;;;;;5014620;28;20454;-85
2022/06/21 12:07:13;;;;;;;3.35;1.20;;;24.20;81.70;;;;;;5015004;28;20489;-87
2022/06/21 12:09:55;;;;;;;4.60;1.40;;;24.10;86.90;;;;;;5013811;28;20398;-85
2022/06/21 12:12:30;;;;;;;3.97;1.42;;;24.40;85.90;;;;;;5013547;28;20881;-81
2022/06/21 12:15:17;;;;;;;3.00;1.50;;;24.40;85.50;;;;;;5014513;28;20395;-88
2022/06/21 12:17:54;;;;;;;2.50;1.30;;;24.50;84.50;;;;;;5023103;28;20391;-85
2022/06/21 12:20:40;;;;;;;5.22;1.40;;;24.30;85.70;;;;;;5013799;28;20399;-83
2022/06/21 12:23:21;;;;;;;2.38;1.10;;;24.10;87.90;;;;;;5015016;28;20414;-86
2022/06/21 12:25:47;;;;;;;2.60;1.07;;;24.20;82.50;;;;;;5012993;28;20466;-86
2022/06/21 12:28:20;;;;;;;3.27;1.20;;;24.40;86.50;;;;;;5014314;28;20394;-87
2022/06/21 12:30:46;;;;;;;6.07;1.45;;;24.40;84.00;;;;;;5014730;28;20426;-86
2022/06/21 12:33:16;;;;;;;2.63;1.20;;;24.50;82.70;;;;;;5006161;28;20486;-87
2022/06/21 12:36:13;;;;;;;2.80;1.05;;;24.70;84.00;;;;;;5014727;28;20448;-85
2022/06/21 12:38:53;;;;;;;4.93;1.30;;;24.70;84.10;;;;;;4997411;28;20948;-86
2022/06/21 12:41:47;;;;;;;2.47;1.13;;;24.90;81.90;;;;;;5013917;28;20391;-87
2022/06/21 12:44:39;;;;;;;4.25;1.50;;;24.60;80.70;;;;;;4996871;28;20406;-86
2022/06/21 12:47:17;;;;;;;2.95;1.33;;;24.20;82.10;;;;;;5013396;28;20511;-85
2022/06/21 12:50:20;;;;;;;3.30;1.25;;;23.90;82.60;;;;;;5013427;28;20403;-88
2022/06/21 12:52:50;;;;;;;3.20;1.10;;;23.90;86.10;;;;;;5013517;28;20386;-88
2022/06/21 12:55:41;;;;;;;2.78;1.40;;;24.30;83.90;;;;;;5014002;28;20471;-87
2022/06/21 12:58:35;;;;;;;4.07;1.37;;;24.60;82.50;;;;;;5015994;28;20927;-88
2022/06/21 13:01:09;;;;;;;4.33;1.20;;;24.80;80.80;;;;;;5018423;28;20399;-86
2022/06/21 13:03:44;;;;;;;3.00;1.00;;;24.90;80.40;;;;;;5016963;28;20814;-85
2022/06/21 13:06:21;;;;;;;3.45;1.23;;;24.80;83.00;;;;;;5011501;28;20407;-87
2022/06/21 13:09:05;;;;;;;5.70;1.30;;;24.90;81.60;;;;;;5012002;28;20405;-86
2022/06/21 13:11:46;;;;;;;3.45;1.30;;;24.90;81.00;;;;;;4997051;28;20456;-89
2022/06/21 13:14:39;;;;;;;5.00;1.33;;;24.80;78.40;;;;;;5000830;28;20954;-86
2022/06/21 13:17:29;;;;;;;6.35;1.20;;;24.70;82.10;;;;;;5015123;28;20442;-86
2022/06/21 13:20:45;;;;;;;2.97;1.20;;;24.60;82.50;;;;;;5011066;28;20415;-87
2022/06/21 13:23:43;;;;;;;2.60;1.20;;;24.70;80.40;;;;;;5007794;28;20772;-86
2022/06/21 13:26:19;;;;;;;4.13;1.40;;;24.80;83.90;;;;;;5015048;28;20502;-87
2022/06/21 13:29:01;;;;;;;5.82;1.70;;;25.10;80.10;;;;;;5019694;28;20484;-87
2022/06/21 13:31:30;;;;;;;4.80;1.13;;;25.20;76.90;;;;;;5023379;28;20407;-85
2022/06/21 13:34:02;;;;;;;3.27;1.13;;;24.80;74.80;;;;;;5020073;28;20400;-90
2022/06/21 13:36:40;;;;;;;4.28;1.27;;;24.60;77.80;;;;;;5015006;28;20393;-83
2022/06/21 13:39:40;;;;;;;3.37;1.37;;;24.70;82.60;;;;;;5020814;28;20391;-85
2022/06/21 13:45:22;;;;;;;2.78;1.20;;;25.00;82.60;;;;;;5019448;28;20971;-88
2022/06/21 13:48:12;;;;;;;2.47;1.15;;;25.10;79.20;;;;;;5019982;28;20430;-87
2022/06/21 13:50:59;;;;;;;4.40;1.20;;;25.10;79.40;;;;;;5018646;28;20877;-85
2022/06/21 13:53:54;;;;;;;2.88;1.33;;;25.10;78.60;;;;;;5020488;28;20374;-85
2022/06/21 13:56:23;;;;;;;2.15;1.08;;;;;;;;;;4997501;28;20458;-85
2022/06/21 13:58:54;;;;;;;2.70;1.15;;;;;;;;;;5018982;28;20875;-85